sensor_id;sensor_type;location;lat;lon;timestamp;P1;durP1;ratioP1;P2;durP2;ratioP2
25950;SDS011;13748;52.240;6.002;2023-07-13T00:01:54;5.37;;;1.83;;
25950;SDS011;13748;52.240;6.002;2023-07-13T00:04:22;4.70;;;1.77;;
25950;SDS011;13748;52.240;6.002;2023-07-13T00:06:54;5.05;;;2.45;;
25950;SDS011;13748;52.240;6.002;2023-07-13T00:09:21;6.35;;;2.20;;
25950;SDS011;13748;52.240;6.002;2023-07-13T00:11:53;5.35;;;1.90;;
25950;SDS011;13748;52.240;6.002;2023-07-13T00:14:22;4.85;;;1.75;;
25950;SDS011;13748;52.240;6.002;2023-07-13T00:16:50;6.88;;;1.90;;
25950;SDS011;13748;52.240;6.002;2023-07-13T00:19:18;7.05;;;1.70;;
25950;SDS011;13748;52.240;6.002;2023-07-13T00:21:45;5.47;;;1.92;;
25950;SDS011;13748;52.240;6.002;2023-07-13T00:24:14;5.78;;;1.98;;
25950;SDS011;13748;52.240;6.002;2023-07-13T00:26:44;5.13;;;2.13;;
25950;SDS011;13748;52.240;6.002;2023-07-13T00:29:12;5.73;;;1.87;;
25950;SDS011;13748;52.240;6.002;2023-07-13T00:31:40;5.30;;;2.00;;
25950;SDS011;13748;52.240;6.002;2023-07-13T00:34:07;9.77;;;2.35;;
25950;SDS011;13748;52.240;6.002;2023-07-13T00:36:34;10.07;;;2.20;;
25950;SDS011;13748;52.240;6.002;2023-07-13T00:39:01;7.65;;;1.90;;
25950;SDS011;13748;52.240;6.002;2023-07-13T00:41:30;5.23;;;1.80;;
25950;SDS011;13748;52.240;6.002;2023-07-13T00:43:58;4.70;;;2.00;;
25950;SDS011;13748;52.240;6.002;2023-07-13T00:46:26;4.17;;;2.10;;
25950;SDS011;13748;52.240;6.002;2023-07-13T00:48:56;3.60;;;2.00;;
25950;SDS011;13748;52.240;6.002;2023-07-13T00:51:27;9.13;;;2.25;;
25950;SDS011;13748;52.240;6.002;2023-07-13T00:54:00;7.13;;;2.40;;
25950;SDS011;13748;52.240;6.002;2023-07-13T00:56:31;4.07;;;2.37;;
25950;SDS011;13748;52.240;6.002;2023-07-13T00:59:00;4.03;;;2.17;;
25950;SDS011;13748;52.240;6.002;2023-07-13T01:01:29;4.93;;;2.60;;
25950;SDS011;13748;52.240;6.002;2023-07-13T01:03:56;6.60;;;2.13;;
25950;SDS011;13748;52.240;6.002;2023-07-13T01:06:23;9.53;;;2.30;;
25950;SDS011;13748;52.240;6.002;2023-07-13T01:08:50;7.90;;;2.50;;
25950;SDS011;13748;52.240;6.002;2023-07-13T01:11:18;6.73;;;2.27;;
25950;SDS011;13748;52.240;6.002;2023-07-13T01:13:48;4.40;;;2.27;;
25950;SDS011;13748;52.240;6.002;2023-07-13T01:16:19;6.10;;;2.00;;
25950;SDS011;13748;52.240;6.002;2023-07-13T01:18:54;6.43;;;2.30;;
25950;SDS011;13748;52.240;6.002;2023-07-13T01:21:25;4.40;;;2.20;;
25950;SDS011;13748;52.240;6.002;2023-07-13T01:23:58;8.93;;;2.40;;
25950;SDS011;13748;52.240;6.002;2023-07-13T01:26:25;4.77;;;2.40;;
25950;SDS011;13748;52.240;6.002;2023-07-13T01:28:57;5.00;;;2.17;;
25950;SDS011;13748;52.240;6.002;2023-07-13T01:31:24;5.03;;;2.17;;
25950;SDS011;13748;52.240;6.002;2023-07-13T01:33:53;5.93;;;2.10;;
25950;SDS011;13748;52.240;6.002;2023-07-13T01:36:22;4.50;;;2.83;;
25950;SDS011;13748;52.240;6.002;2023-07-13T01:38:49;8.30;;;2.80;;
25950;SDS011;13748;52.240;6.002;2023-07-13T01:41:16;5.10;;;2.47;;
25950;SDS011;13748;52.240;6.002;2023-07-13T01:43:46;2.77;;;2.00;;
25950;SDS011;13748;52.240;6.002;2023-07-13T01:46:13;7.20;;;2.07;;
25950;SDS011;13748;52.240;6.002;2023-07-13T01:48:49;6.43;;;2.00;;
25950;SDS011;13748;52.240;6.002;2023-07-13T01:51:17;5.07;;;2.10;;
25950;SDS011;13748;52.240;6.002;2023-07-13T01:53:44;3.47;;;2.07;;
25950;SDS011;13748;52.240;6.002;2023-07-13T01:56:12;5.13;;;1.80;;
25950;SDS011;13748;52.240;6.002;2023-07-13T01:58:39;3.10;;;1.97;;
25950;SDS011;13748;52.240;6.002;2023-07-13T02:01:06;6.03;;;2.13;;
25950;SDS011;13748;52.240;6.002;2023-07-13T02:03:33;6.80;;;2.40;;
25950;SDS011;13748;52.240;6.002;2023-07-13T02:06:00;6.03;;;2.07;;
25950;SDS011;13748;52.240;6.002;2023-07-13T02:08:27;6.90;;;2.37;;
25950;SDS011;13748;52.240;6.002;2023-07-13T02:10:54;4.17;;;2.07;;
25950;SDS011;13748;52.240;6.002;2023-07-13T02:13:21;10.10;;;2.57;;
25950;SDS011;13748;52.240;6.002;2023-07-13T02:15:50;5.43;;;2.20;;
25950;SDS011;13748;52.240;6.002;2023-07-13T02:18:17;5.70;;;2.60;;
25950;SDS011;13748;52.240;6.002;2023-07-13T02:20:47;4.23;;;2.30;;
25950;SDS011;13748;52.240;6.002;2023-07-13T02:23:14;4.80;;;2.03;;
25950;SDS011;13748;52.240;6.002;2023-07-13T02:25:41;4.13;;;2.00;;
25950;SDS011;13748;52.240;6.002;2023-07-13T02:28:09;2.30;;;1.80;;
25950;SDS011;13748;52.240;6.002;2023-07-13T02:30:38;7.20;;;2.30;;
25950;SDS011;13748;52.240;6.002;2023-07-13T02:33:05;4.93;;;1.90;;
25950;SDS011;13748;52.240;6.002;2023-07-13T02:35:32;6.10;;;2.23;;
25950;SDS011;13748;52.240;6.002;2023-07-13T02:37:59;6.33;;;2.30;;
25950;SDS011;13748;52.240;6.002;2023-07-13T02:40:26;6.27;;;2.63;;
25950;SDS011;13748;52.240;6.002;2023-07-13T02:42:53;8.17;;;3.23;;
25950;SDS011;13748;52.240;6.002;2023-07-13T02:45:19;6.23;;;2.30;;
25950;SDS011;13748;52.240;6.002;2023-07-13T02:47:46;5.20;;;1.90;;
25950;SDS011;13748;52.240;6.002;2023-07-13T02:50:13;7.47;;;2.07;;
25950;SDS011;13748;52.240;6.002;2023-07-13T02:52:43;7.60;;;2.20;;
25950;SDS011;13748;52.240;6.002;2023-07-13T02:55:09;4.50;;;1.77;;
25950;SDS011;13748;52.240;6.002;2023-07-13T02:57:36;2.97;;;2.20;;
25950;SDS011;13748;52.240;6.002;2023-07-13T03:00:06;7.40;;;2.17;;
25950;SDS011;13748;52.240;6.002;2023-07-13T03:02:34;9.33;;;2.83;;
25950;SDS011;13748;52.240;6.002;2023-07-13T03:05:01;7.63;;;2.80;;
25950;SDS011;13748;52.240;6.002;2023-07-13T03:07:29;5.60;;;2.30;;
25950;SDS011;13748;52.240;6.002;2023-07-13T03:09:58;5.20;;;2.07;;
25950;SDS011;13748;52.240;6.002;2023-07-13T03:12:25;6.27;;;2.20;;
25950;SDS011;13748;52.240;6.002;2023-07-13T03:14:52;6.83;;;2.40;;
25950;SDS011;13748;52.240;6.002;2023-07-13T03:17:19;8.50;;;2.53;;
25950;SDS011;13748;52.240;6.002;2023-07-13T03:19:46;4.83;;;2.83;;
25950;SDS011;13748;52.240;6.002;2023-07-13T03:22:17;9.30;;;2.73;;
25950;SDS011;13748;52.240;6.002;2023-07-13T03:24:44;5.97;;;2.90;;
25950;SDS011;13748;52.240;6.002;2023-07-13T03:27:12;6.53;;;2.27;;
25950;SDS011;13748;52.240;6.002;2023-07-13T03:29:39;7.13;;;2.53;;
25950;SDS011;13748;52.240;6.002;2023-07-13T03:32:06;5.80;;;2.77;;
25950;SDS011;13748;52.240;6.002;2023-07-13T03:34:33;5.73;;;2.40;;
25950;SDS011;13748;52.240;6.002;2023-07-13T03:37:00;7.93;;;3.10;;
25950;SDS011;13748;52.240;6.002;2023-07-13T03:39:27;5.90;;;2.90;;
25950;SDS011;13748;52.240;6.002;2023-07-13T03:41:55;6.30;;;2.80;;
25950;SDS011;13748;52.240;6.002;2023-07-13T03:44:22;8.57;;;2.70;;
25950;SDS011;13748;52.240;6.002;2023-07-13T03:46:49;6.40;;;2.93;;
25950;SDS011;13748;52.240;6.002;2023-07-13T03:49:15;10.53;;;2.83;;
25950;SDS011;13748;52.240;6.002;2023-07-13T03:51:42;9.10;;;2.70;;
25950;SDS011;13748;52.240;6.002;2023-07-13T03:54:09;10.20;;;2.97;;
25950;SDS011;13748;52.240;6.002;2023-07-13T03:56:37;7.17;;;3.17;;
25950;SDS011;13748;52.240;6.002;2023-07-13T03:59:04;5.67;;;2.80;;
25950;SDS011;13748;52.240;6.002;2023-07-13T04:01:30;7.97;;;3.13;;
25950;SDS011;13748;52.240;6.002;2023-07-13T04:03:57;9.70;;;2.90;;
25950;SDS011;13748;52.240;6.002;2023-07-13T04:06:29;9.13;;;3.23;;
25950;SDS011;13748;52.240;6.002;2023-07-13T04:08:59;5.53;;;2.63;;
25950;SDS011;13748;52.240;6.002;2023-07-13T04:11:30;8.37;;;2.83;;
25950;SDS011;13748;52.240;6.002;2023-07-13T04:14:01;6.50;;;2.70;;
25950;SDS011;13748;52.240;6.002;2023-07-13T04:16:31;9.07;;;3.00;;
25950;SDS011;13748;52.240;6.002;2023-07-13T04:18:58;9.63;;;4.10;;
25950;SDS011;13748;52.240;6.002;2023-07-13T04:21:27;11.57;;;3.03;;
25950;SDS011;13748;52.240;6.002;2023-07-13T04:23:56;6.77;;;2.83;;
25950;SDS011;13748;52.240;6.002;2023-07-13T04:26:26;8.83;;;3.00;;
25950;SDS011;13748;52.240;6.002;2023-07-13T04:28:53;7.23;;;3.77;;
25950;SDS011;13748;52.240;6.002;2023-07-13T04:31:20;5.77;;;2.93;;
25950;SDS011;13748;52.240;6.002;2023-07-13T04:33:48;8.10;;;3.20;;
25950;SDS011;13748;52.240;6.002;2023-07-13T04:36:16;7.57;;;3.07;;
25950;SDS011;13748;52.240;6.002;2023-07-13T04:38:43;5.50;;;2.90;;
25950;SDS011;13748;52.240;6.002;2023-07-13T04:41:10;6.97;;;3.10;;
25950;SDS011;13748;52.240;6.002;2023-07-13T04:43:38;7.33;;;3.17;;
25950;SDS011;13748;52.240;6.002;2023-07-13T04:46:06;10.07;;;3.63;;
25950;SDS011;13748;52.240;6.002;2023-07-13T04:48:35;9.03;;;3.57;;
25950;SDS011;13748;52.240;6.002;2023-07-13T04:51:02;10.63;;;3.67;;
25950;SDS011;13748;52.240;6.002;2023-07-13T04:53:29;7.30;;;3.17;;
25950;SDS011;13748;52.240;6.002;2023-07-13T04:55:57;6.47;;;3.40;;
25950;SDS011;13748;52.240;6.002;2023-07-13T04:58:24;10.63;;;3.70;;
25950;SDS011;13748;52.240;6.002;2023-07-13T05:00:51;7.63;;;3.40;;
25950;SDS011;13748;52.240;6.002;2023-07-13T05:03:19;7.67;;;3.50;;
25950;SDS011;13748;52.240;6.002;2023-07-13T05:05:56;6.90;;;3.77;;
25950;SDS011;13748;52.240;6.002;2023-07-13T05:08:25;9.50;;;3.83;;
25950;SDS011;13748;52.240;6.002;2023-07-13T05:10:52;11.43;;;4.30;;
25950;SDS011;13748;52.240;6.002;2023-07-13T05:13:19;7.50;;;4.07;;
25950;SDS011;13748;52.240;6.002;2023-07-13T05:15:56;11.23;;;3.90;;
25950;SDS011;13748;52.240;6.002;2023-07-13T05:18:28;11.90;;;4.03;;
25950;SDS011;13748;52.240;6.002;2023-07-13T05:21:00;14.10;;;4.13;;
25950;SDS011;13748;52.240;6.002;2023-07-13T05:23:33;12.73;;;4.13;;
25950;SDS011;13748;52.240;6.002;2023-07-13T05:26:02;10.57;;;5.27;;
25950;SDS011;13748;52.240;6.002;2023-07-13T05:28:33;9.47;;;4.13;;
25950;SDS011;13748;52.240;6.002;2023-07-13T05:31:00;13.85;;;4.50;;
25950;SDS011;13748;52.240;6.002;2023-07-13T05:33:28;6.95;;;3.60;;
25950;SDS011;13748;52.240;6.002;2023-07-13T05:35:55;14.60;;;5.15;;
25950;SDS011;13748;52.240;6.002;2023-07-13T05:38:22;9.60;;;5.18;;
25950;SDS011;13748;52.240;6.002;2023-07-13T05:40:49;14.68;;;5.68;;
25950;SDS011;13748;52.240;6.002;2023-07-13T05:43:17;8.80;;;4.70;;
25950;SDS011;13748;52.240;6.002;2023-07-13T05:45:46;10.07;;;5.18;;
25950;SDS011;13748;52.240;6.002;2023-07-13T05:48:13;13.52;;;5.40;;
25950;SDS011;13748;52.240;6.002;2023-07-13T05:50:40;11.18;;;5.05;;
25950;SDS011;13748;52.240;6.002;2023-07-13T05:53:07;11.35;;;5.13;;
25950;SDS011;13748;52.240;6.002;2023-07-13T05:55:34;13.80;;;5.90;;
25950;SDS011;13748;52.240;6.002;2023-07-13T05:58:01;11.70;;;5.25;;
25950;SDS011;13748;52.240;6.002;2023-07-13T06:00:28;15.75;;;4.85;;
25950;SDS011;13748;52.240;6.002;2023-07-13T06:02:55;15.93;;;5.75;;
25950;SDS011;13748;52.240;6.002;2023-07-13T06:05:25;10.45;;;5.65;;
25950;SDS011;13748;52.240;6.002;2023-07-13T06:07:52;11.32;;;5.45;;
25950;SDS011;13748;52.240;6.002;2023-07-13T06:10:18;11.32;;;5.40;;
25950;SDS011;13748;52.240;6.002;2023-07-13T06:12:45;10.60;;;4.97;;
25950;SDS011;13748;52.240;6.002;2023-07-13T06:15:12;11.82;;;5.18;;
25950;SDS011;13748;52.240;6.002;2023-07-13T06:17:44;16.13;;;5.72;;
25950;SDS011;13748;52.240;6.002;2023-07-13T06:20:11;11.13;;;5.20;;
25950;SDS011;13748;52.240;6.002;2023-07-13T06:22:38;12.38;;;5.35;;
25950;SDS011;13748;52.240;6.002;2023-07-13T06:25:05;11.63;;;5.47;;
25950;SDS011;13748;52.240;6.002;2023-07-13T06:27:33;12.40;;;5.70;;
25950;SDS011;13748;52.240;6.002;2023-07-13T06:29:59;11.13;;;5.10;;
25950;SDS011;13748;52.240;6.002;2023-07-13T06:32:28;9.65;;;5.43;;
25950;SDS011;13748;52.240;6.002;2023-07-13T06:34:55;11.63;;;6.40;;
25950;SDS011;13748;52.240;6.002;2023-07-13T06:37:22;17.75;;;5.28;;
25950;SDS011;13748;52.240;6.002;2023-07-13T06:39:48;13.77;;;5.82;;
25950;SDS011;13748;52.240;6.002;2023-07-13T06:42:16;13.02;;;5.78;;
25950;SDS011;13748;52.240;6.002;2023-07-13T06:44:43;11.43;;;5.88;;
25950;SDS011;13748;52.240;6.002;2023-07-13T06:47:10;17.05;;;7.07;;
25950;SDS011;13748;52.240;6.002;2023-07-13T06:49:37;9.60;;;5.22;;
25950;SDS011;13748;52.240;6.002;2023-07-13T06:52:04;11.40;;;6.03;;
25950;SDS011;13748;52.240;6.002;2023-07-13T06:54:31;11.27;;;5.70;;
25950;SDS011;13748;52.240;6.002;2023-07-13T06:56:58;10.15;;;5.25;;
25950;SDS011;13748;52.240;6.002;2023-07-13T06:59:25;10.95;;;5.95;;
25950;SDS011;13748;52.240;6.002;2023-07-13T07:01:52;10.90;;;5.80;;
25950;SDS011;13748;52.240;6.002;2023-07-13T07:04:19;11.15;;;6.10;;
25950;SDS011;13748;52.240;6.002;2023-07-13T07:06:46;10.90;;;5.78;;
25950;SDS011;13748;52.240;6.002;2023-07-13T07:09:13;10.93;;;5.82;;
25950;SDS011;13748;52.240;6.002;2023-07-13T07:11:42;12.90;;;5.82;;
25950;SDS011;13748;52.240;6.002;2023-07-13T07:14:27;10.98;;;5.75;;
25950;SDS011;13748;52.240;6.002;2023-07-13T07:16:54;10.00;;;6.10;;
25950;SDS011;13748;52.240;6.002;2023-07-13T07:19:21;11.38;;;6.60;;
25950;SDS011;13748;52.240;6.002;2023-07-13T07:21:48;12.80;;;5.78;;
25950;SDS011;13748;52.240;6.002;2023-07-13T07:24:15;11.05;;;5.70;;
25950;SDS011;13748;52.240;6.002;2023-07-13T07:26:42;10.95;;;5.30;;
25950;SDS011;13748;52.240;6.002;2023-07-13T07:29:12;10.40;;;5.50;;
25950;SDS011;13748;52.240;6.002;2023-07-13T07:31:42;10.50;;;5.90;;
25950;SDS011;13748;52.240;6.002;2023-07-13T07:34:12;8.90;;;5.20;;
25950;SDS011;13748;52.240;6.002;2023-07-13T07:36:38;10.18;;;5.72;;
25950;SDS011;13748;52.240;6.002;2023-07-13T07:39:08;7.78;;;6.00;;
25950;SDS011;13748;52.240;6.002;2023-07-13T07:41:35;10.50;;;5.03;;
25950;SDS011;13748;52.240;6.002;2023-07-13T07:44:05;11.98;;;5.82;;
25950;SDS011;13748;52.240;6.002;2023-07-13T07:46:33;13.55;;;6.00;;
25950;SDS011;13748;52.240;6.002;2023-07-13T07:49:00;9.88;;;5.70;;
25950;SDS011;13748;52.240;6.002;2023-07-13T07:51:27;11.57;;;6.32;;
25950;SDS011;13748;52.240;6.002;2023-07-13T07:53:54;11.77;;;6.32;;
25950;SDS011;13748;52.240;6.002;2023-07-13T07:56:21;9.13;;;5.07;;
25950;SDS011;13748;52.240;6.002;2023-07-13T07:58:51;12.25;;;6.10;;
25950;SDS011;13748;52.240;6.002;2023-07-13T08:01:21;9.52;;;5.20;;
25950;SDS011;13748;52.240;6.002;2023-07-13T08:03:51;10.60;;;5.65;;
25950;SDS011;13748;52.240;6.002;2023-07-13T08:06:21;12.35;;;5.90;;
25950;SDS011;13748;52.240;6.002;2023-07-13T08:08:52;14.15;;;6.05;;
25950;SDS011;13748;52.240;6.002;2023-07-13T08:11:20;9.50;;;4.90;;
25950;SDS011;13748;52.240;6.002;2023-07-13T08:13:50;10.05;;;5.90;;
25950;SDS011;13748;52.240;6.002;2023-07-13T08:16:23;8.68;;;5.80;;
25950;SDS011;13748;52.240;6.002;2023-07-13T08:18:50;11.57;;;6.00;;
25950;SDS011;13748;52.240;6.002;2023-07-13T08:21:17;12.13;;;6.80;;
25950;SDS011;13748;52.240;6.002;2023-07-13T08:23:46;12.55;;;6.03;;
25950;SDS011;13748;52.240;6.002;2023-07-13T08:26:13;10.40;;;6.07;;
25950;SDS011;13748;52.240;6.002;2023-07-13T08:28:40;10.00;;;6.20;;
25950;SDS011;13748;52.240;6.002;2023-07-13T08:31:08;12.40;;;6.88;;
25950;SDS011;13748;52.240;6.002;2023-07-13T08:33:36;12.13;;;6.88;;
25950;SDS011;13748;52.240;6.002;2023-07-13T08:36:03;14.73;;;7.25;;
25950;SDS011;13748;52.240;6.002;2023-07-13T08:38:31;11.00;;;7.13;;
25950;SDS011;13748;52.240;6.002;2023-07-13T08:40:59;13.23;;;7.07;;
25950;SDS011;13748;52.240;6.002;2023-07-13T08:43:28;13.25;;;7.25;;
25950;SDS011;13748;52.240;6.002;2023-07-13T08:48:52;10.80;;;6.38;;
25950;SDS011;13748;52.240;6.002;2023-07-13T08:51:26;11.45;;;6.03;;
25950;SDS011;13748;52.240;6.002;2023-07-13T08:53:59;10.98;;;5.70;;
25950;SDS011;13748;52.240;6.002;2023-07-13T08:56:29;9.98;;;6.00;;
25950;SDS011;13748;52.240;6.002;2023-07-13T08:58:58;11.40;;;6.38;;
25950;SDS011;13748;52.240;6.002;2023-07-13T09:01:47;9.65;;;5.20;;
25950;SDS011;13748;52.240;6.002;2023-07-13T09:04:49;10.45;;;5.90;;
25950;SDS011;13748;52.240;6.002;2023-07-13T09:07:26;11.63;;;5.40;;
25950;SDS011;13748;52.240;6.002;2023-07-13T09:10:17;7.75;;;4.68;;
25950;SDS011;13748;52.240;6.002;2023-07-13T09:15:34;7.95;;;5.10;;
25950;SDS011;13748;52.240;6.002;2023-07-13T09:18:13;9.50;;;5.03;;
25950;SDS011;13748;52.240;6.002;2023-07-13T09:20:57;8.30;;;4.10;;
25950;SDS011;13748;52.240;6.002;2023-07-13T09:23:29;10.65;;;4.18;;
25950;SDS011;13748;52.240;6.002;2023-07-13T09:26:11;8.45;;;4.50;;
25950;SDS011;13748;52.240;6.002;2023-07-13T09:28:42;8.13;;;4.00;;
25950;SDS011;13748;52.240;6.002;2023-07-13T09:31:15;9.77;;;4.38;;
25950;SDS011;13748;52.240;6.002;2023-07-13T09:33:45;7.80;;;4.20;;
25950;SDS011;13748;52.240;6.002;2023-07-13T09:36:20;7.30;;;4.60;;
25950;SDS011;13748;52.240;6.002;2023-07-13T09:44:29;12.70;;;5.70;;
25950;SDS011;13748;52.240;6.002;2023-07-13T09:46:59;13.63;;;5.30;;
25950;SDS011;13748;52.240;6.002;2023-07-13T09:49:32;10.88;;;5.75;;
25950;SDS011;13748;52.240;6.002;2023-07-13T09:52:03;11.88;;;5.82;;
25950;SDS011;13748;52.240;6.002;2023-07-13T09:54:37;9.18;;;5.22;;
25950;SDS011;13748;52.240;6.002;2023-07-13T09:57:11;11.02;;;4.50;;
25950;SDS011;13748;52.240;6.002;2023-07-13T09:59:42;6.70;;;3.83;;
25950;SDS011;13748;52.240;6.002;2023-07-13T10:02:32;8.05;;;3.30;;
25950;SDS011;13748;52.240;6.002;2023-07-13T10:05:04;4.65;;;3.17;;
25950;SDS011;13748;52.240;6.002;2023-07-13T10:07:37;5.72;;;2.72;;
25950;SDS011;13748;52.240;6.002;2023-07-13T10:10:14;7.13;;;2.50;;
25950;SDS011;13748;52.240;6.002;2023-07-13T10:12:46;2.90;;;2.17;;
25950;SDS011;13748;52.240;6.002;2023-07-13T10:15:15;5.53;;;2.63;;
25950;SDS011;13748;52.240;6.002;2023-07-13T10:17:55;2.45;;;2.10;;
25950;SDS011;13748;52.240;6.002;2023-07-13T10:20:24;7.05;;;2.60;;
25950;SDS011;13748;52.240;6.002;2023-07-13T10:23:00;4.30;;;2.28;;
25950;SDS011;13748;52.240;6.002;2023-07-13T10:25:32;5.15;;;2.70;;
25950;SDS011;13748;52.240;6.002;2023-07-13T10:30:53;3.92;;;2.53;;
25950;SDS011;13748;52.240;6.002;2023-07-13T10:33:24;4.72;;;2.72;;
25950;SDS011;13748;52.240;6.002;2023-07-13T10:35:56;6.53;;;2.88;;
25950;SDS011;13748;52.240;6.002;2023-07-13T10:38:32;3.75;;;2.40;;
25950;SDS011;13748;52.240;6.002;2023-07-13T10:41:03;3.38;;;2.50;;
25950;SDS011;13748;52.240;6.002;2023-07-13T10:43:36;6.60;;;2.85;;
25950;SDS011;13748;52.240;6.002;2023-07-13T10:46:08;4.07;;;2.50;;
25950;SDS011;13748;52.240;6.002;2023-07-13T10:48:39;7.47;;;3.40;;
25950;SDS011;13748;52.240;6.002;2023-07-13T10:51:08;4.20;;;2.20;;
25950;SDS011;13748;52.240;6.002;2023-07-13T10:53:38;5.13;;;1.98;;
25950;SDS011;13748;52.240;6.002;2023-07-13T10:56:26;3.00;;;2.10;;
25950;SDS011;13748;52.240;6.002;2023-07-13T10:59:17;4.15;;;2.22;;
25950;SDS011;13748;52.240;6.002;2023-07-13T11:04:24;4.18;;;2.20;;
25950;SDS011;13748;52.240;6.002;2023-07-13T11:06:56;3.25;;;1.75;;
25950;SDS011;13748;52.240;6.002;2023-07-13T11:09:36;3.70;;;2.20;;
25950;SDS011;13748;52.240;6.002;2023-07-13T11:12:07;2.85;;;1.90;;
25950;SDS011;13748;52.240;6.002;2023-07-13T11:14:36;3.25;;;1.83;;
25950;SDS011;13748;52.240;6.002;2023-07-13T11:19:54;5.53;;;2.50;;
25950;SDS011;13748;52.240;6.002;2023-07-13T11:33:24;4.82;;;2.92;;
25950;SDS011;13748;52.240;6.002;2023-07-13T11:36:15;3.67;;;2.47;;
25950;SDS011;13748;52.240;6.002;2023-07-13T11:39:12;4.65;;;2.72;;
25950;SDS011;13748;52.240;6.002;2023-07-13T11:41:49;4.47;;;2.20;;
25950;SDS011;13748;52.240;6.002;2023-07-13T11:44:20;7.00;;;2.58;;
25950;SDS011;13748;52.240;6.002;2023-07-13T11:46:55;5.65;;;2.67;;
25950;SDS011;13748;52.240;6.002;2023-07-13T11:49:28;5.32;;;2.80;;
25950;SDS011;13748;52.240;6.002;2023-07-13T11:51:58;5.53;;;2.55;;
25950;SDS011;13748;52.240;6.002;2023-07-13T11:54:30;3.95;;;2.42;;
25950;SDS011;13748;52.240;6.002;2023-07-13T11:57:01;6.15;;;2.40;;
25950;SDS011;13748;52.240;6.002;2023-07-13T11:59:33;2.88;;;2.17;;
25950;SDS011;13748;52.240;6.002;2023-07-13T12:02:14;4.03;;;2.10;;
25950;SDS011;13748;52.240;6.002;2023-07-13T12:04:53;4.20;;;2.42;;
25950;SDS011;13748;52.240;6.002;2023-07-13T12:07:28;4.68;;;2.45;;
25950;SDS011;13748;52.240;6.002;2023-07-13T12:16:28;3.00;;;1.88;;
25950;SDS011;13748;52.240;6.002;2023-07-13T12:19:00;5.93;;;2.03;;
25950;SDS011;13748;52.240;6.002;2023-07-13T12:21:32;4.45;;;2.00;;
25950;SDS011;13748;52.240;6.002;2023-07-13T12:24:11;3.67;;;2.13;;
25950;SDS011;13748;52.240;6.002;2023-07-13T12:26:44;4.88;;;2.03;;
25950;SDS011;13748;52.240;6.002;2023-07-13T12:29:20;4.50;;;1.95;;
25950;SDS011;13748;52.240;6.002;2023-07-13T12:31:59;2.83;;;2.15;;
25950;SDS011;13748;52.240;6.002;2023-07-13T12:34:26;4.55;;;1.88;;
25950;SDS011;13748;52.240;6.002;2023-07-13T12:37:11;5.00;;;1.92;;
25950;SDS011;13748;52.240;6.002;2023-07-13T12:40:04;5.68;;;2.20;;
25950;SDS011;13748;52.240;6.002;2023-07-13T12:45:32;3.78;;;1.88;;
25950;SDS011;13748;52.240;6.002;2023-07-13T12:48:03;6.47;;;2.30;;
25950;SDS011;13748;52.240;6.002;2023-07-13T12:50:40;2.67;;;2.05;;
25950;SDS011;13748;52.240;6.002;2023-07-13T12:53:17;5.93;;;2.25;;
25950;SDS011;13748;52.240;6.002;2023-07-13T12:55:48;5.90;;;2.35;;
25950;SDS011;13748;52.240;6.002;2023-07-13T12:58:26;4.68;;;2.33;;
25950;SDS011;13748;52.240;6.002;2023-07-13T13:00:59;5.00;;;2.38;;
25950;SDS011;13748;52.240;6.002;2023-07-13T13:06:28;5.68;;;2.50;;
25950;SDS011;13748;52.240;6.002;2023-07-13T13:08:57;4.65;;;2.63;;
25950;SDS011;13748;52.240;6.002;2023-07-13T13:11:25;3.95;;;2.47;;
25950;SDS011;13748;52.240;6.002;2023-07-13T13:13:54;3.72;;;2.40;;
25950;SDS011;13748;52.240;6.002;2023-07-13T13:16:29;5.28;;;2.17;;
25950;SDS011;13748;52.240;6.002;2023-07-13T13:19:37;3.95;;;2.47;;
25950;SDS011;13748;52.240;6.002;2023-07-13T13:21:57;3.75;;;2.40;;
25950;SDS011;13748;52.240;6.002;2023-07-13T13:24:26;4.32;;;2.72;;
25950;SDS011;13748;52.240;6.002;2023-07-13T13:26:54;5.63;;;2.42;;
25950;SDS011;13748;52.240;6.002;2023-07-13T13:29:24;4.55;;;2.63;;
25950;SDS011;13748;52.240;6.002;2023-07-13T13:31:51;5.28;;;2.45;;
25950;SDS011;13748;52.240;6.002;2023-07-13T13:34:19;4.75;;;2.38;;
25950;SDS011;13748;52.240;6.002;2023-07-13T13:36:50;4.50;;;2.35;;
25950;SDS011;13748;52.240;6.002;2023-07-13T13:39:24;5.35;;;2.15;;
25950;SDS011;13748;52.240;6.002;2023-07-13T13:42:02;4.63;;;1.80;;
25950;SDS011;13748;52.240;6.002;2023-07-13T13:44:29;3.45;;;1.75;;
25950;SDS011;13748;52.240;6.002;2023-07-13T13:46:58;3.33;;;2.15;;
25950;SDS011;13748;52.240;6.002;2023-07-13T13:49:26;5.65;;;2.20;;
25950;SDS011;13748;52.240;6.002;2023-07-13T13:51:54;2.33;;;1.70;;
25950;SDS011;13748;52.240;6.002;2023-07-13T13:54:22;4.45;;;2.05;;
25950;SDS011;13748;52.240;6.002;2023-07-13T13:56:52;3.35;;;1.90;;
25950;SDS011;13748;52.240;6.002;2023-07-13T13:59:21;6.38;;;2.17;;
25950;SDS011;13748;52.240;6.002;2023-07-13T14:02:07;3.40;;;1.60;;
25950;SDS011;13748;52.240;6.002;2023-07-13T14:07:21;3.50;;;2.17;;
25950;SDS011;13748;52.240;6.002;2023-07-13T14:09:47;3.17;;;1.73;;
25950;SDS011;13748;52.240;6.002;2023-07-13T14:12:14;3.15;;;2.13;;
25950;SDS011;13748;52.240;6.002;2023-07-13T14:14:41;3.90;;;1.80;;
25950;SDS011;13748;52.240;6.002;2023-07-13T14:17:19;3.05;;;1.90;;
25950;SDS011;13748;52.240;6.002;2023-07-13T14:19:49;3.70;;;1.80;;
25950;SDS011;13748;52.240;6.002;2023-07-13T14:22:19;5.22;;;2.25;;
25950;SDS011;13748;52.240;6.002;2023-07-13T14:24:47;2.65;;;1.88;;
25950;SDS011;13748;52.240;6.002;2023-07-13T14:27:14;5.88;;;2.10;;
25950;SDS011;13748;52.240;6.002;2023-07-13T14:29:41;2.78;;;1.90;;
25950;SDS011;13748;52.240;6.002;2023-07-13T14:32:10;7.25;;;2.35;;
25950;SDS011;13748;52.240;6.002;2023-07-13T14:34:38;2.97;;;1.80;;
25950;SDS011;13748;52.240;6.002;2023-07-13T14:37:11;6.28;;;2.25;;
25950;SDS011;13748;52.240;6.002;2023-07-13T14:39:40;3.90;;;2.17;;
25950;SDS011;13748;52.240;6.002;2023-07-13T14:42:10;4.55;;;2.00;;
25950;SDS011;13748;52.240;6.002;2023-07-13T14:44:37;4.18;;;2.17;;
25950;SDS011;13748;52.240;6.002;2023-07-13T14:47:05;4.43;;;2.17;;
25950;SDS011;13748;52.240;6.002;2023-07-13T14:49:40;5.28;;;2.30;;
25950;SDS011;13748;52.240;6.002;2023-07-13T14:52:19;3.42;;;2.03;;
25950;SDS011;13748;52.240;6.002;2023-07-13T14:54:52;3.75;;;2.15;;
25950;SDS011;13748;52.240;6.002;2023-07-13T14:57:21;4.50;;;2.30;;
25950;SDS011;13748;52.240;6.002;2023-07-13T14:59:48;5.70;;;2.25;;
25950;SDS011;13748;52.240;6.002;2023-07-13T15:02:23;4.93;;;2.05;;
25950;SDS011;13748;52.240;6.002;2023-07-13T15:04:58;3.17;;;2.00;;
25950;SDS011;13748;52.240;6.002;2023-07-13T15:07:25;3.88;;;1.83;;
25950;SDS011;13748;52.240;6.002;2023-07-13T15:09:52;3.67;;;2.25;;
25950;SDS011;13748;52.240;6.002;2023-07-13T15:12:19;3.47;;;2.20;;
25950;SDS011;13748;52.240;6.002;2023-07-13T15:14:46;4.93;;;2.30;;
25950;SDS011;13748;52.240;6.002;2023-07-13T15:17:23;4.55;;;2.55;;
25950;SDS011;13748;52.240;6.002;2023-07-13T15:19:57;4.05;;;2.60;;
25950;SDS011;13748;52.240;6.002;2023-07-13T15:22:25;4.35;;;2.13;;
25950;SDS011;13748;52.240;6.002;2023-07-13T15:24:53;4.30;;;2.10;;
25950;SDS011;13748;52.240;6.002;2023-07-13T15:27:22;5.85;;;2.15;;
25950;SDS011;13748;52.240;6.002;2023-07-13T15:29:48;4.25;;;2.30;;
25950;SDS011;13748;52.240;6.002;2023-07-13T15:32:15;4.78;;;2.10;;
25950;SDS011;13748;52.240;6.002;2023-07-13T15:34:43;3.50;;;2.10;;
25950;SDS011;13748;52.240;6.002;2023-07-13T15:37:14;3.65;;;2.28;;
25950;SDS011;13748;52.240;6.002;2023-07-13T15:39:42;4.50;;;2.50;;
25950;SDS011;13748;52.240;6.002;2023-07-13T15:42:16;3.70;;;2.28;;
25950;SDS011;13748;52.240;6.002;2023-07-13T15:44:44;5.78;;;2.58;;
25950;SDS011;13748;52.240;6.002;2023-07-13T15:47:13;5.78;;;2.17;;